EJU58FH LFPO-LIRF
Flight info
| Callsign | EJU58FH |
|---|---|
| Flight time | 1h 33m |
| Altitude | 39000 |
| Route | OKASI DCT OKEKO DCT MOU DCT MADIV DCT MOKIP DCT TUFTA DCT KOGAS DCT MEDAM DCT NITAM DCT MOGBO DCT ELB DCT ELKAP |
| Aircraft | A320/M-SDE3FGHIRWY/LB1 |
Departure
| Time | 2026-05-05 11:40 |
|---|---|
| Airport | Paris-Orly Airport (LFPO) |
Arrival
| Time | 2026-05-05 13:13 |
|---|---|
| Airport | Rome–Fiumicino Leonardo da Vinci International Airport (LIRF) |
| Time | Latitude | Longitude | Altitude | Speed | Heading |
|---|---|---|---|---|---|
| 2026-05-05 11:10 | 48.72981 | 2.35790 | 298 ft | 0 kts | 158° |
| 2026-05-05 11:31 | 48.72988 | 2.35786 | 295 ft | 4 kts | 159° |
| 2026-05-05 11:31 | 48.73013 | 2.35773 | 300 ft | 4 kts | 166° |
| 2026-05-05 11:31 | 48.73040 | 2.35767 | 298 ft | 4 kts | 183° |
| 2026-05-05 11:32 | 48.73063 | 2.35776 | 299 ft | 4 kts | 230° |
| 2026-05-05 11:32 | 48.73066 | 2.35782 | 297 ft | 0 kts | 236° |
| 2026-05-05 11:34 | 48.73063 | 2.35774 | 299 ft | 3 kts | 236° |
| 2026-05-05 11:34 | 48.73049 | 2.35703 | 298 ft | 11 kts | 275° |
| 2026-05-05 11:34 | 48.73014 | 2.35565 | 298 ft | 18 kts | 224° |
| 2026-05-05 11:35 | 48.72912 | 2.35531 | 297 ft | 15 kts | 167° |
| 2026-05-05 11:35 | 48.72825 | 2.35572 | 297 ft | 13 kts | 163° |
| 2026-05-05 11:35 | 48.72749 | 2.35604 | 298 ft | 9 kts | 165° |
| 2026-05-05 11:35 | 48.72693 | 2.35627 | 297 ft | 8 kts | 164° |
| 2026-05-05 11:36 | 48.72644 | 2.35648 | 296 ft | 7 kts | 164° |
| 2026-05-05 11:36 | 48.72598 | 2.35667 | 299 ft | 7 kts | 165° |
| 2026-05-05 11:36 | 48.72546 | 2.35689 | 298 ft | 10 kts | 162° |
| 2026-05-05 11:36 | 48.72465 | 2.35670 | 299 ft | 13 kts | 243° |
| 2026-05-05 11:37 | 48.72395 | 2.35631 | 288 ft | 12 kts | 163° |
| 2026-05-05 11:37 | 48.72317 | 2.35631 | 285 ft | 11 kts | 199° |
| 2026-05-05 11:37 | 48.72245 | 2.35600 | 287 ft | 10 kts | 182° |
| 2026-05-05 11:37 | 48.72177 | 2.35622 | 286 ft | 9 kts | 165° |
| 2026-05-05 11:38 | 48.72119 | 2.35646 | 285 ft | 8 kts | 162° |
| 2026-05-05 11:38 | 48.72064 | 2.35690 | 288 ft | 10 kts | 142° |
| 2026-05-05 11:38 | 48.72018 | 2.35781 | 287 ft | 13 kts | 120° |
| 2026-05-05 11:38 | 48.71971 | 2.35914 | 286 ft | 15 kts | 110° |
| 2026-05-05 11:39 | 48.71982 | 2.36081 | 286 ft | 17 kts | 73° |
| 2026-05-05 11:39 | 48.72023 | 2.36302 | 287 ft | 40 kts | 74° |
| 2026-05-05 11:39 | 48.72167 | 2.37080 | 284 ft | 109 kts | 74° |
| 2026-05-05 11:39 | 48.72418 | 2.38437 | 292 ft | 159 kts | 75° |
| 2026-05-05 11:40 | 48.72715 | 2.40110 | 872 ft | 164 kts | 72° |
| 2026-05-05 11:40 | 48.73018 | 2.41774 | 1607 ft | 168 kts | 72° |
| 2026-05-05 11:40 | 48.73357 | 2.43597 | 2012 ft | 191 kts | 72° |
| 2026-05-05 11:40 | 48.73743 | 2.45663 | 2388 ft | 217 kts | 72° |
| 2026-05-05 11:41 | 48.74042 | 2.48033 | 2959 ft | 242 kts | 86° |
| 2026-05-05 11:41 | 48.74080 | 2.50638 | 3923 ft | 251 kts | 92° |
| 2026-05-05 11:41 | 48.73536 | 2.53188 | 4959 ft | 261 kts | 121° |
| 2026-05-05 11:41 | 48.72255 | 2.55165 | 6000 ft | 269 kts | 144° |
| 2026-05-05 11:42 | 48.70481 | 2.56161 | 6895 ft | 280 kts | 171° |
| 2026-05-05 11:42 | 48.68516 | 2.55899 | 7786 ft | 288 kts | 189° |
| 2026-05-05 11:42 | 48.66542 | 2.55272 | 8732 ft | 290 kts | 190° |
| 2026-05-05 11:42 | 48.64550 | 2.54628 | 9639 ft | 296 kts | 190° |
| 2026-05-05 11:43 | 48.62497 | 2.53968 | 10231 ft | 312 kts | 189° |
| 2026-05-05 11:43 | 48.60298 | 2.53271 | 10577 ft | 334 kts | 190° |
| 2026-05-05 11:43 | 48.57989 | 2.52543 | 11270 ft | 341 kts | 189° |
| 2026-05-05 11:43 | 48.55679 | 2.51814 | 12071 ft | 346 kts | 189° |
| 2026-05-05 11:44 | 48.53310 | 2.51069 | 12912 ft | 350 kts | 189° |
| 2026-05-05 11:44 | 48.50882 | 2.50307 | 13605 ft | 353 kts | 189° |
| 2026-05-05 11:44 | 48.48479 | 2.49719 | 14274 ft | 354 kts | 181° |
| 2026-05-05 11:44 | 48.46025 | 2.49854 | 15104 ft | 353 kts | 169° |
| 2026-05-05 11:45 | 48.43648 | 2.50766 | 15916 ft | 353 kts | 156° |
| 2026-05-05 11:45 | 48.41429 | 2.52346 | 16707 ft | 353 kts | 151° |
| 2026-05-05 11:45 | 48.39236 | 2.54045 | 17470 ft | 356 kts | 151° |
| 2026-05-05 11:45 | 48.37030 | 2.55750 | 18141 ft | 359 kts | 151° |
| 2026-05-05 11:46 | 48.34796 | 2.57473 | 18710 ft | 362 kts | 152° |
| 2026-05-05 11:46 | 48.32539 | 2.59209 | 19229 ft | 366 kts | 152° |
| 2026-05-05 11:46 | 48.30257 | 2.60961 | 19776 ft | 370 kts | 152° |
| 2026-05-05 11:46 | 48.27950 | 2.62731 | 20531 ft | 373 kts | 153° |
| 2026-05-05 11:47 | 48.25628 | 2.64514 | 21152 ft | 377 kts | 152° |
| 2026-05-05 11:47 | 48.23282 | 2.66324 | 21709 ft | 380 kts | 152° |
| 2026-05-05 11:47 | 48.20924 | 2.68143 | 22270 ft | 383 kts | 152° |
| 2026-05-05 11:47 | 48.18537 | 2.69974 | 22836 ft | 386 kts | 153° |
| 2026-05-05 11:48 | 48.13716 | 2.73660 | 23833 ft | 391 kts | 152° |
| 2026-05-05 11:48 | 48.11282 | 2.75520 | 24295 ft | 394 kts | 152° |
| 2026-05-05 11:48 | 48.08835 | 2.77388 | 24736 ft | 396 kts | 152° |
| 2026-05-05 11:49 | 48.06347 | 2.79192 | 25169 ft | 398 kts | 154° |
| 2026-05-05 11:49 | 48.03805 | 2.80875 | 25590 ft | 401 kts | 156° |
| 2026-05-05 11:49 | 48.01221 | 2.82488 | 26005 ft | 403 kts | 157° |
| 2026-05-05 11:49 | 47.98649 | 2.84054 | 26408 ft | 405 kts | 157° |
| 2026-05-05 11:50 | 47.96030 | 2.85650 | 26830 ft | 407 kts | 156° |
| 2026-05-05 11:50 | 47.93409 | 2.87270 | 27231 ft | 409 kts | 156° |
| 2026-05-05 11:50 | 47.90776 | 2.88920 | 27622 ft | 412 kts | 156° |
| 2026-05-05 11:50 | 47.88134 | 2.90590 | 28003 ft | 414 kts | 156° |
| 2026-05-05 11:51 | 47.85467 | 2.92285 | 28367 ft | 416 kts | 156° |
| 2026-05-05 11:51 | 47.82793 | 2.93986 | 28724 ft | 419 kts | 156° |
| 2026-05-05 11:51 | 47.80106 | 2.95692 | 29082 ft | 420 kts | 156° |
| 2026-05-05 11:51 | 47.77434 | 2.97383 | 29640 ft | 416 kts | 156° |
| 2026-05-05 11:52 | 47.74761 | 2.99066 | 30006 ft | 418 kts | 156° |
| 2026-05-05 11:52 | 47.72066 | 3.00758 | 30213 ft | 421 kts | 156° |
| 2026-05-05 11:52 | 47.69351 | 3.02456 | 30455 ft | 424 kts | 157° |
| 2026-05-05 11:52 | 47.66631 | 3.04157 | 30704 ft | 426 kts | 157° |
| 2026-05-05 11:53 | 47.63895 | 3.05873 | 30952 ft | 428 kts | 157° |
| 2026-05-05 11:53 | 47.61147 | 3.07598 | 31187 ft | 429 kts | 157° |
| 2026-05-05 11:53 | 47.58391 | 3.09324 | 31439 ft | 430 kts | 157° |
| 2026-05-05 11:53 | 47.55637 | 3.11043 | 31773 ft | 430 kts | 157° |
| 2026-05-05 11:54 | 47.52867 | 3.12772 | 32099 ft | 430 kts | 157° |
| 2026-05-05 11:54 | 47.50114 | 3.14493 | 32413 ft | 430 kts | 157° |
| 2026-05-05 11:54 | 47.47395 | 3.16189 | 32729 ft | 430 kts | 157° |
| 2026-05-05 11:54 | 47.44640 | 3.17900 | 33075 ft | 429 kts | 157° |
| 2026-05-05 11:55 | 47.41888 | 3.19608 | 33411 ft | 428 kts | 157° |
| 2026-05-05 11:55 | 47.39139 | 3.21313 | 33763 ft | 428 kts | 158° |
| 2026-05-05 11:55 | 47.36393 | 3.23013 | 34055 ft | 427 kts | 158° |
| 2026-05-05 11:55 | 47.33652 | 3.24709 | 34328 ft | 427 kts | 158° |
| 2026-05-05 11:56 | 47.30908 | 3.26403 | 34575 ft | 428 kts | 158° |
| 2026-05-05 11:56 | 47.28161 | 3.28096 | 34813 ft | 428 kts | 158° |
| 2026-05-05 11:56 | 47.25413 | 3.29787 | 35053 ft | 428 kts | 158° |
| 2026-05-05 11:56 | 47.22659 | 3.31484 | 35277 ft | 428 kts | 159° |
| 2026-05-05 11:57 | 47.19912 | 3.33180 | 35524 ft | 428 kts | 159° |
| 2026-05-05 11:57 | 47.17164 | 3.34874 | 35763 ft | 428 kts | 159° |
| 2026-05-05 11:57 | 47.14416 | 3.36563 | 35983 ft | 428 kts | 159° |
| 2026-05-05 11:57 | 47.11663 | 3.38248 | 36203 ft | 428 kts | 159° |
| 2026-05-05 11:58 | 47.08909 | 3.39935 | 36411 ft | 429 kts | 159° |
| 2026-05-05 11:58 | 47.06153 | 3.41624 | 36619 ft | 429 kts | 159° |
| 2026-05-05 11:58 | 47.04329 | 3.42742 | 36758 ft | 429 kts | 159° |
| 2026-05-05 11:58 | 47.01570 | 3.44433 | 36850 ft | 429 kts | 159° |
| 2026-05-05 11:59 | 46.96072 | 3.47785 | 36864 ft | 427 kts | 159° |
| 2026-05-05 11:59 | 46.90578 | 3.51118 | 36862 ft | 427 kts | 160° |
| 2026-05-05 12:00 | 46.85074 | 3.54455 | 36865 ft | 428 kts | 160° |
| 2026-05-05 12:00 | 46.79574 | 3.57792 | 36866 ft | 428 kts | 160° |
| 2026-05-05 12:01 | 46.74275 | 3.61761 | 36866 ft | 432 kts | 144° |
| 2026-05-05 12:01 | 46.72072 | 3.64764 | 36863 ft | 436 kts | 133° |
| 2026-05-05 12:01 | 46.70321 | 3.68396 | 36859 ft | 441 kts | 121° |
| 2026-05-05 12:02 | 46.69123 | 3.72470 | 36854 ft | 446 kts | 109° |
| 2026-05-05 12:02 | 46.68359 | 3.76857 | 36855 ft | 447 kts | 107° |
| 2026-05-05 12:02 | 46.66877 | 3.85655 | 36858 ft | 448 kts | 107° |
| 2026-05-05 12:03 | 46.65369 | 3.94449 | 36860 ft | 448 kts | 107° |
| 2026-05-05 12:03 | 46.63831 | 4.03249 | 36863 ft | 448 kts | 111° |
| 2026-05-05 12:04 | 46.61278 | 4.11409 | 36852 ft | 443 kts | 120° |
| 2026-05-05 12:04 | 46.58553 | 4.19459 | 36864 ft | 444 kts | 120° |
| 2026-05-05 12:05 | 46.55817 | 4.27502 | 36873 ft | 444 kts | 120° |
| 2026-05-05 12:05 | 46.53076 | 4.35554 | 36876 ft | 445 kts | 120° |
| 2026-05-05 12:06 | 46.50328 | 4.43589 | 36861 ft | 445 kts | 120° |
| 2026-05-05 12:06 | 46.47569 | 4.51630 | 36869 ft | 445 kts | 120° |
| 2026-05-05 12:07 | 46.44797 | 4.59662 | 36869 ft | 446 kts | 120° |
| 2026-05-05 12:07 | 46.42016 | 4.67711 | 36876 ft | 446 kts | 120° |
| 2026-05-05 12:08 | 46.39230 | 4.75759 | 36875 ft | 447 kts | 120° |
| 2026-05-05 12:08 | 46.36435 | 4.83804 | 36866 ft | 447 kts | 121° |
| 2026-05-05 12:09 | 46.33638 | 4.91839 | 36876 ft | 447 kts | 121° |
| 2026-05-05 12:09 | 46.30838 | 4.99864 | 36883 ft | 447 kts | 121° |
| 2026-05-05 12:10 | 46.28030 | 5.07886 | 36884 ft | 447 kts | 121° |
| 2026-05-05 12:10 | 46.25217 | 5.15897 | 36884 ft | 447 kts | 121° |
| 2026-05-05 12:11 | 46.22382 | 5.23922 | 36863 ft | 449 kts | 121° |
| 2026-05-05 12:11 | 46.19554 | 5.31909 | 36883 ft | 450 kts | 121° |
| 2026-05-05 12:12 | 46.16698 | 5.39959 | 36885 ft | 451 kts | 121° |
| 2026-05-05 12:12 | 46.13831 | 5.48017 | 36898 ft | 452 kts | 121° |
| 2026-05-05 12:13 | 46.10963 | 5.56066 | 36903 ft | 452 kts | 122° |
| 2026-05-05 12:13 | 46.08078 | 5.64129 | 36904 ft | 452 kts | 122° |
| 2026-05-05 12:14 | 46.05188 | 5.72180 | 36923 ft | 452 kts | 122° |
| 2026-05-05 12:14 | 46.02294 | 5.80225 | 36937 ft | 453 kts | 122° |
| 2026-05-05 12:15 | 45.99393 | 5.88252 | 36925 ft | 452 kts | 122° |
| 2026-05-05 12:15 | 45.96483 | 5.96293 | 36912 ft | 453 kts | 123° |
| 2026-05-05 12:16 | 45.93579 | 6.04281 | 36923 ft | 454 kts | 123° |
| 2026-05-05 12:16 | 45.90646 | 6.12307 | 36938 ft | 454 kts | 123° |
| 2026-05-05 12:17 | 45.87705 | 6.20341 | 36940 ft | 455 kts | 123° |
| 2026-05-05 12:17 | 45.84766 | 6.28377 | 36940 ft | 455 kts | 123° |
| 2026-05-05 12:18 | 45.81686 | 6.36269 | 36926 ft | 449 kts | 131° |
| 2026-05-05 12:18 | 45.77423 | 6.42561 | 36919 ft | 434 kts | 149° |
| 2026-05-05 12:19 | 45.72512 | 6.47549 | 36929 ft | 433 kts | 150° |
| 2026-05-05 12:19 | 45.67597 | 6.52561 | 36935 ft | 435 kts | 150° |
| 2026-05-05 12:20 | 45.62667 | 6.57573 | 36955 ft | 435 kts | 150° |
| 2026-05-05 12:20 | 45.57731 | 6.62569 | 36929 ft | 434 kts | 150° |
| 2026-05-05 12:21 | 45.52802 | 6.67547 | 36935 ft | 433 kts | 151° |
| 2026-05-05 12:21 | 45.47886 | 6.72497 | 36963 ft | 432 kts | 151° |
| 2026-05-05 12:22 | 45.42996 | 6.77415 | 36978 ft | 434 kts | 151° |
| 2026-05-05 12:22 | 45.38068 | 6.82368 | 36962 ft | 432 kts | 151° |
| 2026-05-05 12:23 | 45.33162 | 6.87287 | 36966 ft | 431 kts | 151° |
| 2026-05-05 12:23 | 45.28258 | 6.92193 | 36971 ft | 431 kts | 151° |
| 2026-05-05 12:24 | 45.23667 | 6.97817 | 36959 ft | 439 kts | 143° |
| 2026-05-05 12:24 | 45.19284 | 7.03854 | 36965 ft | 440 kts | 143° |
| 2026-05-05 12:25 | 45.14889 | 7.09901 | 36945 ft | 439 kts | 143° |
| 2026-05-05 12:25 | 45.10564 | 7.16036 | 36954 ft | 444 kts | 136° |
| 2026-05-05 12:26 | 45.06928 | 7.23204 | 36973 ft | 450 kts | 132° |
| 2026-05-05 12:26 | 45.03331 | 7.30455 | 36979 ft | 450 kts | 132° |
| 2026-05-05 12:27 | 44.99726 | 7.37681 | 37011 ft | 450 kts | 132° |
| 2026-05-05 12:27 | 44.95691 | 7.44282 | 37010 ft | 440 kts | 142° |
| 2026-05-05 12:28 | 44.91359 | 7.50328 | 36988 ft | 440 kts | 142° |
| 2026-05-05 12:28 | 44.87007 | 7.56401 | 36991 ft | 441 kts | 142° |
| 2026-05-05 12:29 | 44.82652 | 7.62485 | 36983 ft | 441 kts | 142° |
| 2026-05-05 12:29 | 44.78287 | 7.68553 | 36987 ft | 441 kts | 142° |
| 2026-05-05 12:30 | 44.73911 | 7.74621 | 36992 ft | 441 kts | 142° |
| 2026-05-05 12:30 | 44.69533 | 7.80682 | 36975 ft | 441 kts | 142° |
| 2026-05-05 12:31 | 44.65146 | 7.86737 | 36984 ft | 441 kts | 142° |
| 2026-05-05 12:31 | 44.62952 | 7.89765 | 36612 ft | 440 kts | 142° |
| 2026-05-05 12:31 | 44.60768 | 7.92779 | 35899 ft | 441 kts | 142° |
| 2026-05-05 12:32 | 44.58578 | 7.95799 | 35160 ft | 441 kts | 142° |
| 2026-05-05 12:32 | 44.56386 | 7.98819 | 34413 ft | 442 kts | 142° |
| 2026-05-05 12:32 | 44.54183 | 8.01843 | 33635 ft | 443 kts | 142° |
| 2026-05-05 12:32 | 44.52006 | 8.04825 | 33126 ft | 444 kts | 142° |
| 2026-05-05 12:33 | 44.49791 | 8.07855 | 32942 ft | 446 kts | 142° |
| 2026-05-05 12:33 | 44.47567 | 8.10893 | 32987 ft | 448 kts | 142° |
| 2026-05-05 12:33 | 44.43095 | 8.16990 | 32980 ft | 449 kts | 142° |
| 2026-05-05 12:34 | 44.38621 | 8.23089 | 32978 ft | 449 kts | 142° |
| 2026-05-05 12:34 | 44.34149 | 8.29177 | 32980 ft | 449 kts | 142° |
| 2026-05-05 12:35 | 44.29669 | 8.35253 | 32964 ft | 449 kts | 142° |
| 2026-05-05 12:35 | 44.27434 | 8.38281 | 32538 ft | 447 kts | 142° |
| 2026-05-05 12:35 | 44.25197 | 8.41310 | 31636 ft | 450 kts | 143° |
| 2026-05-05 12:36 | 44.22944 | 8.44353 | 31173 ft | 452 kts | 143° |
| 2026-05-05 12:36 | 44.20703 | 8.47370 | 30971 ft | 455 kts | 143° |
| 2026-05-05 12:36 | 44.16142 | 8.53511 | 30975 ft | 457 kts | 143° |
| 2026-05-05 12:37 | 44.11567 | 8.59671 | 30978 ft | 457 kts | 143° |
| 2026-05-05 12:37 | 44.06990 | 8.65816 | 30980 ft | 458 kts | 142° |
| 2026-05-05 12:38 | 44.02400 | 8.71958 | 30965 ft | 458 kts | 143° |
| 2026-05-05 12:38 | 43.97802 | 8.78098 | 30975 ft | 459 kts | 143° |
| 2026-05-05 12:39 | 43.93194 | 8.84228 | 30975 ft | 459 kts | 143° |
| 2026-05-05 12:39 | 43.88584 | 8.90360 | 30975 ft | 459 kts | 143° |
| 2026-05-05 12:40 | 43.83969 | 8.96473 | 30982 ft | 459 kts | 142° |
| 2026-05-05 12:40 | 43.79348 | 9.02596 | 30978 ft | 460 kts | 142° |
| 2026-05-05 12:41 | 43.75501 | 9.07680 | 30974 ft | 460 kts | 143° |
| 2026-05-05 12:41 | 43.70872 | 9.13777 | 30981 ft | 459 kts | 143° |
| 2026-05-05 12:42 | 43.66242 | 9.19860 | 30983 ft | 459 kts | 143° |
| 2026-05-05 12:42 | 43.61604 | 9.25943 | 30978 ft | 460 kts | 143° |
| 2026-05-05 12:43 | 43.56956 | 9.32018 | 30986 ft | 460 kts | 143° |
| 2026-05-05 12:43 | 43.52307 | 9.38082 | 30984 ft | 460 kts | 143° |
| 2026-05-05 12:44 | 43.47660 | 9.44153 | 30998 ft | 460 kts | 143° |
| 2026-05-05 12:44 | 43.42999 | 9.50222 | 30968 ft | 463 kts | 143° |
| 2026-05-05 12:45 | 43.38290 | 9.56317 | 30988 ft | 465 kts | 143° |
| 2026-05-05 12:45 | 43.33602 | 9.62388 | 30994 ft | 466 kts | 143° |
| 2026-05-05 12:46 | 43.28888 | 9.68494 | 30994 ft | 466 kts | 143° |
| 2026-05-05 12:46 | 43.24163 | 9.74590 | 30994 ft | 466 kts | 143° |
| 2026-05-05 12:47 | 43.19427 | 9.80666 | 30996 ft | 467 kts | 143° |
| 2026-05-05 12:47 | 43.14670 | 9.86756 | 30995 ft | 468 kts | 143° |
| 2026-05-05 12:48 | 43.09911 | 9.92852 | 30996 ft | 468 kts | 143° |
| 2026-05-05 12:48 | 43.05145 | 9.98950 | 30987 ft | 469 kts | 143° |
| 2026-05-05 12:49 | 43.00384 | 10.05027 | 30996 ft | 469 kts | 143° |
| 2026-05-05 12:49 | 42.95604 | 10.11106 | 31000 ft | 470 kts | 143° |
| 2026-05-05 12:50 | 42.90855 | 10.17134 | 30678 ft | 455 kts | 143° |
| 2026-05-05 12:50 | 42.88572 | 10.20040 | 30434 ft | 443 kts | 143° |
| 2026-05-05 12:50 | 42.86337 | 10.22882 | 30181 ft | 437 kts | 143° |
| 2026-05-05 12:51 | 42.84120 | 10.25690 | 29922 ft | 433 kts | 143° |
| 2026-05-05 12:51 | 42.81907 | 10.28472 | 29634 ft | 431 kts | 143° |
| 2026-05-05 12:51 | 42.79704 | 10.31228 | 29359 ft | 429 kts | 143° |
| 2026-05-05 12:51 | 42.77540 | 10.34043 | 29084 ft | 431 kts | 138° |
| 2026-05-05 12:52 | 42.75682 | 10.37265 | 28787 ft | 436 kts | 128° |
| 2026-05-05 12:52 | 42.74232 | 10.40919 | 28515 ft | 443 kts | 116° |
| 2026-05-05 12:52 | 42.73132 | 10.44837 | 28250 ft | 443 kts | 115° |
| 2026-05-05 12:52 | 42.72028 | 10.48745 | 27982 ft | 441 kts | 115° |
| 2026-05-05 12:53 | 42.70921 | 10.52619 | 27718 ft | 439 kts | 115° |
| 2026-05-05 12:53 | 42.69813 | 10.56475 | 27462 ft | 437 kts | 115° |
| 2026-05-05 12:53 | 42.68715 | 10.60312 | 27193 ft | 434 kts | 115° |
| 2026-05-05 12:53 | 42.67628 | 10.64129 | 26937 ft | 432 kts | 115° |
| 2026-05-05 12:54 | 42.65473 | 10.71696 | 26434 ft | 428 kts | 115° |
| 2026-05-05 12:54 | 42.64401 | 10.75459 | 26188 ft | 426 kts | 115° |
| 2026-05-05 12:54 | 42.63328 | 10.79203 | 25940 ft | 424 kts | 115° |
| 2026-05-05 12:55 | 42.62260 | 10.82926 | 25712 ft | 423 kts | 115° |
| 2026-05-05 12:55 | 42.61194 | 10.86632 | 25462 ft | 421 kts | 115° |
| 2026-05-05 12:55 | 42.60132 | 10.90327 | 25223 ft | 419 kts | 114° |
| 2026-05-05 12:55 | 42.59077 | 10.94003 | 24986 ft | 417 kts | 114° |
| 2026-05-05 12:56 | 42.58026 | 10.97665 | 24749 ft | 416 kts | 114° |
| 2026-05-05 12:56 | 42.56976 | 11.01315 | 24513 ft | 414 kts | 114° |
| 2026-05-05 12:56 | 42.55931 | 11.04946 | 24279 ft | 413 kts | 114° |
| 2026-05-05 12:56 | 42.54889 | 11.08552 | 23926 ft | 408 kts | 114° |
| 2026-05-05 12:57 | 42.53867 | 11.12079 | 23456 ft | 406 kts | 114° |
| 2026-05-05 12:57 | 42.52844 | 11.15621 | 22954 ft | 402 kts | 114° |
| 2026-05-05 12:57 | 42.51839 | 11.19149 | 22484 ft | 399 kts | 114° |
| 2026-05-05 12:57 | 42.50843 | 11.22646 | 22038 ft | 396 kts | 114° |
| 2026-05-05 12:58 | 42.49857 | 11.26114 | 21583 ft | 392 kts | 114° |
| 2026-05-05 12:58 | 42.48877 | 11.29554 | 21136 ft | 389 kts | 114° |
| 2026-05-05 12:58 | 42.47906 | 11.32954 | 20691 ft | 386 kts | 114° |
| 2026-05-05 12:58 | 42.46933 | 11.36349 | 20151 ft | 386 kts | 114° |
| 2026-05-05 12:59 | 42.45960 | 11.39740 | 19618 ft | 386 kts | 114° |
| 2026-05-05 12:59 | 42.44984 | 11.43130 | 19100 ft | 387 kts | 114° |
| 2026-05-05 12:59 | 42.44002 | 11.46523 | 18576 ft | 386 kts | 114° |
| 2026-05-05 13:00 | 42.42037 | 11.53287 | 17444 ft | 385 kts | 114° |
| 2026-05-05 13:00 | 42.41062 | 11.56664 | 16875 ft | 385 kts | 114° |
| 2026-05-05 13:01 | 42.38154 | 11.66778 | 15230 ft | 384 kts | 114° |
| 2026-05-05 13:01 | 42.37189 | 11.70139 | 14699 ft | 382 kts | 114° |
| 2026-05-05 13:01 | 42.36224 | 11.73486 | 14181 ft | 382 kts | 114° |
| 2026-05-05 13:01 | 42.35258 | 11.76833 | 13636 ft | 381 kts | 114° |
| 2026-05-05 13:02 | 42.34311 | 11.80121 | 12973 ft | 367 kts | 114° |
| 2026-05-05 13:02 | 42.33350 | 11.83242 | 12335 ft | 351 kts | 122° |
| 2026-05-05 13:02 | 42.31939 | 11.85801 | 11849 ft | 328 kts | 140° |
| 2026-05-05 13:02 | 42.30213 | 11.87617 | 11458 ft | 309 kts | 150° |
| 2026-05-05 13:03 | 42.28439 | 11.89247 | 10722 ft | 308 kts | 150° |
| 2026-05-05 13:03 | 42.26686 | 11.90823 | 10014 ft | 305 kts | 150° |
| 2026-05-05 13:03 | 42.24919 | 11.92388 | 9235 ft | 303 kts | 151° |
| 2026-05-05 13:03 | 42.23160 | 11.93946 | 8461 ft | 302 kts | 150° |
| 2026-05-05 13:04 | 42.21398 | 11.95518 | 7699 ft | 299 kts | 150° |
| 2026-05-05 13:04 | 42.19685 | 11.97044 | 6968 ft | 296 kts | 150° |
| 2026-05-05 13:04 | 42.17983 | 11.98560 | 6228 ft | 291 kts | 150° |
| 2026-05-05 13:04 | 42.16314 | 12.00045 | 5471 ft | 285 kts | 150° |
| 2026-05-05 13:05 | 42.14665 | 12.01511 | 4721 ft | 281 kts | 150° |
| 2026-05-05 13:05 | 42.13048 | 12.02949 | 3967 ft | 276 kts | 151° |
| 2026-05-05 13:05 | 42.11562 | 12.04447 | 3646 ft | 258 kts | 138° |
| 2026-05-05 13:05 | 42.10392 | 12.06153 | 3402 ft | 238 kts | 137° |
| 2026-05-05 13:06 | 42.09311 | 12.07743 | 3161 ft | 224 kts | 139° |
| 2026-05-05 13:06 | 42.08272 | 12.09264 | 2969 ft | 215 kts | 138° |
| 2026-05-05 13:06 | 42.07302 | 12.10685 | 2995 ft | 198 kts | 138° |
| 2026-05-05 13:06 | 42.06399 | 12.12005 | 3004 ft | 189 kts | 137° |
| 2026-05-05 13:07 | 42.05520 | 12.13288 | 2970 ft | 184 kts | 138° |
| 2026-05-05 13:07 | 42.04658 | 12.14545 | 2918 ft | 182 kts | 138° |
| 2026-05-05 13:07 | 42.03769 | 12.15837 | 2870 ft | 195 kts | 136° |
| 2026-05-05 13:07 | 42.02835 | 12.17194 | 2805 ft | 198 kts | 136° |
| 2026-05-05 13:08 | 42.01889 | 12.18533 | 2740 ft | 195 kts | 144° |
| 2026-05-05 13:08 | 42.00723 | 12.19380 | 2665 ft | 190 kts | 165° |
| 2026-05-05 13:08 | 41.99485 | 12.19901 | 2571 ft | 181 kts | 166° |
| 2026-05-05 13:08 | 41.98308 | 12.20393 | 2503 ft | 175 kts | 165° |
| 2026-05-05 13:09 | 41.97149 | 12.20879 | 2491 ft | 174 kts | 166° |
| 2026-05-05 13:09 | 41.95996 | 12.21363 | 2368 ft | 171 kts | 166° |
| 2026-05-05 13:09 | 41.94889 | 12.21830 | 2170 ft | 163 kts | 165° |
| 2026-05-05 13:09 | 41.93837 | 12.22272 | 1962 ft | 153 kts | 165° |
| 2026-05-05 13:10 | 41.92853 | 12.22685 | 1753 ft | 143 kts | 164° |
| 2026-05-05 13:10 | 41.91941 | 12.23068 | 1566 ft | 131 kts | 163° |
| 2026-05-05 13:10 | 41.91093 | 12.23424 | 1407 ft | 125 kts | 164° |
| 2026-05-05 13:10 | 41.90269 | 12.23770 | 1240 ft | 124 kts | 164° |
| 2026-05-05 13:11 | 41.89450 | 12.24113 | 1076 ft | 124 kts | 164° |
| 2026-05-05 13:11 | 41.88632 | 12.24456 | 910 ft | 121 kts | 164° |
| 2026-05-05 13:11 | 41.87829 | 12.24793 | 745 ft | 126 kts | 161° |
| 2026-05-05 13:11 | 41.86996 | 12.25142 | 561 ft | 123 kts | 161° |
| 2026-05-05 13:12 | 41.86170 | 12.25489 | 366 ft | 126 kts | 161° |
| 2026-05-05 13:12 | 41.85340 | 12.25837 | 212 ft | 124 kts | 161° |
| 2026-05-05 13:12 | 41.84515 | 12.26180 | 67 ft | 121 kts | 160° |
| 2026-05-05 13:12 | 41.83763 | 12.26500 | 17 ft | 93 kts | 162° |
| 2026-05-05 13:13 | 41.83281 | 12.26702 | 11 ft | 62 kts | 163° |
| 2026-05-05 13:13 | 41.82912 | 12.26858 | 12 ft | 50 kts | 162° |
| 2026-05-05 13:13 | 41.82615 | 12.26982 | 12 ft | 43 kts | 163° |
| 2026-05-05 13:13 | 41.82340 | 12.27096 | 9 ft | 40 kts | 162° |
| 2026-05-05 13:14 | 41.82073 | 12.27211 | 11 ft | 40 kts | 163° |
| 2026-05-05 13:14 | 41.81815 | 12.27318 | 13 ft | 38 kts | 162° |
| 2026-05-05 13:14 | 41.81570 | 12.27418 | 14 ft | 35 kts | 169° |
| 2026-05-05 13:14 | 41.81386 | 12.27365 | 13 ft | 20 kts | 224° |
| 2026-05-05 13:15 | 41.81309 | 12.27232 | 12 ft | 15 kts | 180° |
| 2026-05-05 13:15 | 41.81203 | 12.27246 | 12 ft | 16 kts | 167° |
| 2026-05-05 13:15 | 41.81097 | 12.27292 | 13 ft | 16 kts | 161° |
| 2026-05-05 13:15 | 41.80984 | 12.27340 | 14 ft | 18 kts | 162° |
| 2026-05-05 13:16 | 41.80856 | 12.27337 | 13 ft | 19 kts | 191° |
| 2026-05-05 13:16 | 41.80718 | 12.27302 | 13 ft | 21 kts | 199° |
| 2026-05-05 13:16 | 41.80635 | 12.27149 | 13 ft | 22 kts | 249° |
| 2026-05-05 13:16 | 41.80580 | 12.26948 | 13 ft | 24 kts | 251° |
| 2026-05-05 13:17 | 41.80523 | 12.26737 | 14 ft | 22 kts | 251° |
| 2026-05-05 13:17 | 41.80465 | 12.26537 | 15 ft | 24 kts | 249° |
| 2026-05-05 13:17 | 41.80382 | 12.26371 | 17 ft | 21 kts | 199° |
| 2026-05-05 13:17 | 41.80308 | 12.26390 | 14 ft | 0 kts | 160° |
| 2026-05-05 13:19 | 41.79589 | 12.26184 | 14 ft | 0 kts | 115° |